SBCY/CGB METAR and TAF weather

Enter ICAO airport designator
Station Type Date Time Source
SBCY METAR 2020/07/11 21:00 UTC NOAA

SBCY 112100Z 30007KT CAVOK 34/10 Q1011


Station Type Date Time Source
SBCY Decoded METAR 2020/07/11 21:00 UTC NOAA

Cuiaba Aeroporto , Brazil (SBCY) 15-39S 056-06W 182M
Jul 11, 2020 - 05:00 PM EDT / 2020.07.11 2100 UTC
Wind: from the WNW (300 degrees) at 8 MPH (7 KT):0
Visibility: greater than 7 mile(s):0
Temperature: 93 F (34 C)
Dew Point: 50 F (10 C)
Relative Humidity: 23%
Pressure (altimeter): 29.85 in. Hg (1011 hPa)
ob: SBCY 112100Z 30007KT CAVOK 34/10 Q1011
cycle: 21

Station Type Date Time Source
SBCY TAF 2020/07/11 18:54 UTC NOAA

TAF SBCY 111500Z 1118/1218 35005KT CAVOK TX33/1118Z TN22/1206Z
RMK PED

Example: see airport list